Time;durP1;ratioP1;P1;durP2;ratioP2;P2;SDS_P1;SDS_P2;PMS_P1;PMS_P2;Temp;Humidity;BMP_temperature;BMP_pressure;BME280_temperature;BME280_humidity;BME280_pressure;Samples;Min_cycle;Max_cycle;Signal;HPM_P1;HPM_P2
2022/04/18 00:00:32;;;;;;;10.50;8.18;;;;;;;11.33;47.68;102062.84;5007328;28;20037;-61
2022/04/18 00:02:59;;;;;;;12.38;7.57;;;;;;;11.24;47.84;102058.59;4990642;28;20105;-62
2022/04/18 00:05:24;;;;;;;9.98;7.45;;;;;;;11.23;47.82;102056.88;4987233;28;20026;-60
2022/04/18 00:07:49;;;;;;;13.27;7.43;;;;;;;11.20;48.26;102051.66;4986620;28;20043;-61
2022/04/18 00:10:15;;;;;;;11.10;7.18;;;;;;;11.19;47.66;102055.16;4987598;28;20042;-62
2022/04/18 00:12:40;;;;;;;10.90;7.25;;;;;;;11.22;47.36;102049.84;4985003;28;20061;-63
2022/04/18 00:15:06;;;;;;;8.82;6.60;;;;;;;11.19;48.08;102052.53;4987698;28;20022;-62
2022/04/18 00:17:31;;;;;;;9.27;6.13;;;;;;;11.13;47.82;102050.88;4986400;28;20477;-63
2022/04/18 00:19:57;;;;;;;10.63;7.30;;;;;;;11.11;48.34;102050.88;4987602;28;20041;-63
2022/04/18 00:22:23;;;;;;;9.63;6.38;;;;;;;11.07;48.55;102049.22;4987204;28;20057;-63
2022/04/18 00:24:49;;;;;;;12.07;7.00;;;;;;;11.03;48.67;102052.81;4987517;28;20432;-63
2022/04/18 00:27:14;;;;;;;11.32;7.18;;;;;;;11.03;48.17;102047.53;4987272;28;20034;-62
2022/04/18 00:29:39;;;;;;;11.32;6.50;;;;;;;11.01;48.38;102044.03;4988691;28;20484;-63
2022/04/18 00:32:05;;;;;;;9.93;6.90;;;;;;;11.02;48.83;102040.50;4990929;28;20014;-62
2022/04/18 00:34:32;;;;;;;9.05;6.38;;;;;;;10.98;48.88;102034.41;4989102;28;20030;-62
2022/04/18 00:36:57;;;;;;;9.70;6.30;;;;;;;10.97;48.83;102044.97;4989423;28;20014;-63
2022/04/18 00:39:22;;;;;;;9.20;7.10;;;;;;;10.93;48.67;102043.28;4990242;28;20440;-63
2022/04/18 00:41:48;;;;;;;11.73;6.40;;;;;;;11.01;48.26;102049.31;4989655;28;20520;-63
2022/04/18 00:44:13;;;;;;;15.48;7.25;;;;;;;10.97;48.51;102042.34;4991020;28;20138;-62
2022/04/18 00:46:38;;;;;;;11.40;6.78;;;;;;;11.06;47.70;102042.19;4990358;28;20054;-62
2022/04/18 00:49:04;;;;;;;9.77;6.15;;;;;;;11.17;47.14;102039.34;4990062;28;20069;-62
2022/04/18 00:51:29;;;;;;;10.30;7.00;;;;;;;11.20;47.19;102039.31;4988195;28;20539;-63
2022/04/18 00:53:56;;;;;;;10.30;6.75;;;;;;;11.25;46.42;102036.59;4989531;28;20018;-63
2022/04/18 00:56:21;;;;;;;9.77;6.50;;;;;;;11.27;46.69;102039.22;4988610;28;20022;-63
2022/04/18 00:58:48;;;;;;;9.93;6.47;;;;;;;11.22;46.62;102042.81;4990794;28;20041;-62
2022/04/18 01:01:14;;;;;;;10.65;7.43;;;;;;;11.22;46.41;102041.91;4989161;28;20032;-63
2022/04/18 01:03:40;;;;;;;10.85;7.35;;;;;;;11.14;47.33;102039.44;4990011;28;20112;-63
2022/04/18 01:06:05;;;;;;;11.02;7.28;;;;;;;11.09;47.44;102036.00;4990063;28;20053;-62
2022/04/18 01:08:34;;;;;;;12.27;6.55;;;;;;;11.10;47.20;102043.00;4972370;28;20045;-62
2022/04/18 01:11:00;;;;;;;;;;;;;;;11.08;48.00;102039.53;4983726;23;20212;-62
2022/04/18 01:13:27;;;;;;;12.70;7.07;;;;;;;11.00;48.25;102044.94;4989371;28;19936;-63
2022/04/18 01:15:53;;;;;;;11.35;7.10;;;;;;;10.91;48.81;102037.16;4988431;28;20030;-63
2022/04/18 01:18:19;;;;;;;13.60;7.93;;;;;;;10.82;48.89;102033.78;4990784;28;20205;-63
2022/04/18 01:20:44;;;;;;;9.70;6.90;;;;;;;10.79;48.91;102022.41;4989399;28;20129;-63
2022/04/18 01:23:10;;;;;;;11.02;7.43;;;;;;;10.77;49.26;102024.22;4989691;28;20681;-62
2022/04/18 01:31:03;;;;;;;10.88;7.13;;;;;;;10.67;49.70;102029.63;4989098;28;20029;-63
2022/04/18 01:33:29;;;;;;;9.15;7.18;;;;;;;10.65;49.73;102030.56;4990000;28;20035;-63
2022/04/18 01:35:55;;;;;;;11.20;6.82;;;;;;;10.67;49.61;102024.34;4989625;28;20029;-63
2022/04/18 01:38:20;;;;;;;11.15;6.97;;;;;;;10.61;49.76;102022.69;4990315;28;20465;-64
2022/04/18 01:40:45;;;;;;;9.25;6.05;;;;;;;10.61;49.98;102024.44;4989250;28;20038;-64
2022/04/18 01:43:11;;;;;;;13.80;7.53;;;;;;;10.60;49.84;102027.97;4989299;28;20022;-64
2022/04/18 01:45:36;;;;;;;11.98;6.65;;;;;;;10.55;49.87;102025.41;4988555;28;20045;-63
2022/04/18 01:48:01;;;;;;;11.65;6.95;;;;;;;10.50;50.27;102027.22;4989206;28;20121;-64
2022/04/18 01:50:27;;;;;;;9.90;6.28;;;;;;;10.44;50.24;102020.25;4989830;28;20024;-64
2022/04/18 01:52:52;;;;;;;12.55;7.28;;;;;;;10.40;50.47;102018.56;4988953;28;20124;-64
2022/04/18 01:55:18;;;;;;;11.68;7.00;;;;;;;10.42;50.13;102019.38;4990357;28;20023;-65
2022/04/18 01:57:43;;;;;;;11.32;6.47;;;;;;;10.44;50.63;102019.38;4988761;28;20441;-64
2022/04/18 02:00:09;;;;;;;9.73;6.72;;;;;;;10.40;50.22;102018.56;4989085;28;20044;-63
2022/04/18 02:02:34;;;;;;;10.77;6.50;;;;;;;10.34;50.08;102016.88;4989810;28;20036;-64
2022/04/18 02:05:00;;;;;;;9.73;6.57;;;;;;;10.39;49.92;102015.94;4988537;28;20113;-64
2022/04/18 02:07:26;;;;;;;11.13;6.35;;;;;;;10.47;49.50;102008.81;4987879;28;20354;-62
2022/04/18 02:09:51;;;;;;;8.75;6.00;;;;;;;10.46;49.56;102015.00;4988630;28;20084;-63
2022/04/18 02:12:17;;;;;;;11.07;6.10;;;;;;;10.41;49.61;102006.28;4988376;28;20046;-62
2022/04/18 02:14:42;;;;;;;8.13;5.13;;;;;;;10.42;48.45;102005.38;4987624;28;20034;-63
2022/04/18 02:17:08;;;;;;;9.63;5.20;;;;;;;10.46;48.68;102004.44;4989195;28;20019;-63
2022/04/18 02:19:33;;;;;;;9.02;5.78;;;;;;;10.47;48.69;102019.34;4989176;28;20037;-64
2022/04/18 02:21:58;;;;;;;7.25;4.63;;;;;;;10.47;48.14;102014.09;5019731;28;20042;-64
2022/04/18 02:24:23;;;;;;;8.63;5.50;;;;;;;10.46;47.86;102007.97;4988552;28;20030;-62
2022/04/18 02:26:49;;;;;;;7.18;4.43;;;;;;;10.45;48.14;102000.06;4988163;28;20025;-64
2022/04/18 02:29:14;;;;;;;6.90;5.15;;;;;;;10.41;48.25;102001.84;4989286;28;20027;-63
2022/04/18 02:34:28;;;;;;;6.22;4.88;;;;;;;10.44;48.05;101998.28;4985698;28;20057;-64
2022/04/18 02:36:53;;;;;;;6.32;4.75;;;;;;;10.44;47.82;101996.53;4987049;28;20310;-63
2022/04/18 02:39:18;;;;;;;9.38;4.60;;;;;;;10.47;47.81;102009.69;4968461;28;20034;-64
2022/04/18 02:41:44;;;;;;;5.30;4.10;;;;;;;10.40;48.22;102005.38;4967920;28;20023;-62
2022/04/18 02:44:09;;;;;;;6.55;5.00;;;;;;;10.29;49.06;101999.41;4988449;28;20635;-62
2022/04/18 02:46:34;;;;;;;7.05;4.78;;;;;;;10.30;48.74;101996.72;4988053;28;20034;-63
2022/04/18 02:49:00;;;;;;;6.75;4.70;;;;;;;10.31;48.45;101987.94;4988104;28;20030;-64
2022/04/18 02:51:27;;;;;;;7.00;5.15;;;;;;;10.26;48.94;101995.03;4988175;28;20027;-63
2022/04/18 02:53:53;;;;;;;6.13;4.22;;;;;;;10.28;48.63;101988.00;4987746;28;20146;-64
2022/04/18 02:56:19;;;;;;;5.93;3.67;;;;;;;10.25;48.72;101988.03;4987118;28;20465;-63
2022/04/18 02:58:44;;;;;;;7.95;4.70;;;;;;;10.16;49.13;101996.06;4987933;28;20045;-63
2022/04/18 03:01:10;;;;;;;6.63;4.47;;;;;;;10.21;48.53;101999.50;4988512;28;20061;-63
2022/04/18 03:03:35;;;;;;;8.52;4.72;;;;;;;10.11;49.26;101994.34;4988645;28;20387;-65
2022/04/18 03:06:00;;;;;;;7.90;4.63;;;;;;;10.16;49.07;101990.78;4987855;28;20024;-63
2022/04/18 03:08:26;;;;;;;8.35;4.40;;;;;;;10.08;49.72;101990.88;4988497;28;20054;-63
2022/04/18 03:11:03;;;;;;;6.45;4.75;;;;;;;10.05;49.79;101985.69;4987610;28;20066;-64
2022/04/18 03:13:29;;;;;;;7.20;4.22;;;;;;;10.00;49.65;101985.75;4988248;28;20081;-63
2022/04/18 03:15:55;;;;;;;7.75;4.78;;;;;;;9.93;50.14;101979.66;4988421;28;20022;-61
2022/04/18 03:18:21;;;;;;;5.50;4.00;;;;;;;9.91;50.32;101980.59;4987864;28;20369;-62
2022/04/18 03:20:46;;;;;;;7.15;4.28;;;;;;;9.88;50.77;101976.25;4987533;28;20117;-63
2022/04/18 03:23:11;;;;;;;7.00;4.50;;;;;;;9.80;50.57;101981.59;4987244;28;20030;-64
2022/04/18 03:25:37;;;;;;;7.82;4.97;;;;;;;9.77;50.86;101976.38;4988016;28;20018;-63
2022/04/18 03:28:03;;;;;;;5.00;4.20;;;;;;;9.76;50.68;101982.53;4987625;28;20031;-62
2022/04/18 03:30:28;;;;;;;4.75;4.05;;;;;;;9.73;50.75;101977.28;4987053;28;20133;-63
2022/04/18 03:32:53;;;;;;;4.18;3.60;;;;;;;9.74;50.15;101979.03;4988200;28;20097;-63
2022/04/18 03:35:18;;;;;;;7.10;4.40;;;;;;;9.62;50.34;101977.41;4987830;28;20040;-63
2022/04/18 03:40:28;;;;;;;7.05;4.05;;;;;;;9.59;50.41;101980.06;4987934;28;20069;-62
2022/04/18 03:42:53;;;;;;;6.53;4.03;;;;;;;9.48;50.79;101967.91;4986808;28;20058;-63
2022/04/18 03:45:19;;;;;;;6.50;4.47;;;;;;;9.46;50.93;101971.47;4988706;28;20022;-63
2022/04/18 03:47:44;;;;;;;9.25;4.60;;;;;;;9.50;50.68;101970.53;4986538;28;20041;-62
2022/04/18 03:50:09;;;;;;;4.93;3.97;;;;;;;9.48;50.65;101972.28;4987036;28;20266;-61
2022/04/18 03:52:35;;;;;;;4.70;4.20;;;;;;;9.44;51.09;101975.84;4987853;28;20088;-63
2022/04/18 03:55:00;;;;;;;7.63;3.88;;;;;;;9.43;51.49;101974.13;4987002;28;20117;-64
2022/04/18 03:57:25;;;;;;;8.02;3.88;;;;;;;9.40;51.58;101967.16;4987291;28;20033;-64
2022/04/18 03:59:51;;;;;;;5.35;3.95;;;;;;;9.37;51.82;101966.28;4987161;28;20040;-64
2022/04/18 04:02:16;;;;;;;6.82;4.10;;;;;;;9.32;51.81;101959.31;4986837;28;20121;-63
2022/04/18 04:04:42;;;;;;;6.30;3.97;;;;;;;9.35;51.74;101951.41;4990159;28;20034;-63
2022/04/18 04:07:07;;;;;;;6.93;3.70;;;;;;;9.38;51.74;101961.00;4990407;28;20397;-62
2022/04/18 04:09:34;;;;;;;5.97;3.92;;;;;;;9.40;51.87;101955.75;4991183;28;20068;-62
2022/04/18 04:11:59;;;;;;;4.80;3.90;;;;;;;9.43;51.50;101964.47;4988617;28;20066;-63
2022/04/18 04:14:24;;;;;;;6.97;4.00;;;;;;;9.32;51.05;101956.69;4991002;28;20507;-63
2022/04/18 04:16:50;;;;;;;8.40;4.25;;;;;;;9.30;51.31;101949.72;4990956;28;20118;-62
2022/04/18 04:19:15;;;;;;;5.65;3.70;;;;;;;9.31;51.04;101954.97;4988818;28;20026;-63
2022/04/18 04:21:40;;;;;;;4.85;3.90;;;;;;;9.34;50.80;101952.28;4979993;28;20034;-62
2022/04/18 04:24:05;;;;;;;7.25;3.55;;;;;;;9.34;50.54;101947.00;4991069;28;20026;-62
2022/04/18 04:26:31;;;;;;;5.30;3.38;;;;;;;9.41;50.34;101954.84;4990516;28;20022;-62
2022/04/18 04:28:56;;;;;;;4.65;3.03;;;;;;;9.49;49.97;101955.63;4989943;28;20038;-62
2022/04/18 04:31:21;;;;;;;3.85;2.83;;;;;;;9.49;49.47;101955.63;4991152;28;20416;-62
2022/04/18 04:33:47;;;;;;;4.93;3.40;;;;;;;9.56;49.58;101954.69;4991608;28;20034;-62
2022/04/18 04:36:12;;;;;;;4.88;3.33;;;;;;;9.54;49.50;101960.84;4990605;28;20026;-64
2022/04/18 04:38:38;;;;;;;5.35;3.15;;;;;;;9.54;49.36;101966.13;4990865;28;20023;-65
2022/04/18 04:41:03;;;;;;;4.72;3.03;;;;;;;9.53;50.11;101969.63;4990020;28;20068;-63
2022/04/18 04:43:29;;;;;;;4.60;3.17;;;;;;;9.46;49.55;101974.94;4989957;28;20061;-62
2022/04/18 04:45:55;;;;;;;11.45;3.58;;;;;;;9.45;49.46;101978.47;4989823;28;20014;-64
2022/04/18 04:48:22;;;;;;;7.10;3.58;;;;;;;9.41;49.46;101981.16;4989346;28;20543;-63
2022/04/18 04:50:47;;;;;;;6.82;3.50;;;;;;;9.42;49.45;101989.03;4989393;28;20457;-63
2022/04/18 04:53:12;;;;;;;3.83;3.42;;;;;;;9.41;49.77;101983.78;4989710;28;20046;-63
2022/04/18 04:55:37;;;;;;;3.78;3.35;;;;;;;9.33;50.33;101973.34;4988719;28;20061;-63
2022/04/18 04:58:03;;;;;;;5.43;3.97;;;;;;;9.26;51.81;101972.53;4990228;28;20117;-63
2022/04/18 05:00:28;;;;;;;5.78;3.90;;;;;;;9.19;51.81;101973.50;4986243;28;20069;-64
2022/04/18 05:02:57;;;;;;;5.35;3.70;;;;;;;9.11;52.84;101973.56;4988633;28;20040;-63
2022/04/18 05:05:22;;;;;;;5.93;4.35;;;;;;;9.02;52.92;101973.63;4989917;28;20030;-62
2022/04/18 05:07:48;;;;;;;5.63;3.65;;;;;;;9.07;53.40;101966.59;4991078;28;20045;-63
2022/04/18 05:10:13;;;;;;;5.30;4.00;;;;;;;9.06;53.32;101965.69;4990225;28;20515;-64
2022/04/18 05:12:39;;;;;;;7.03;3.78;;;;;;;8.98;53.60;101972.81;4988216;28;20124;-63
2022/04/18 05:15:04;;;;;;;5.30;3.70;;;;;;;8.97;53.49;101969.28;4988818;28;20041;-63
2022/04/18 05:17:30;;;;;;;6.10;3.80;;;;;;;8.97;53.77;101971.91;4986482;28;20532;-64
2022/04/18 05:19:56;;;;;;;4.20;3.20;;;;;;;8.99;53.59;101969.28;4989962;28;20053;-64
2022/04/18 05:22:21;;;;;;;6.03;3.42;;;;;;;9.09;53.53;101955.16;4989621;28;20042;-63
2022/04/18 05:24:47;;;;;;;9.18;3.85;;;;;;;9.17;53.01;101956.84;4990162;28;20080;-63
2022/04/18 05:27:15;;;;;;;6.88;3.30;;;;;;;9.24;53.33;101958.50;4989434;28;20149;-63
2022/04/18 05:29:44;;;;;;;5.07;3.43;;;;;;;9.37;52.77;101961.03;4989730;28;20030;-63
2022/04/18 05:32:10;;;;;;;5.45;3.47;;;;;;;9.44;52.85;101953.06;4989372;28;20436;-63
2022/04/18 05:34:35;;;;;;;3.67;3.25;;;;;;;9.56;52.92;101959.94;4989823;28;20029;-63
2022/04/18 05:37:01;;;;;;;5.15;3.33;;;;;;;9.63;52.57;101951.97;4988767;28;20362;-63
2022/04/18 05:39:26;;;;;;;4.18;3.35;;;;;;;9.69;52.21;101949.28;4988813;28;20061;-63
2022/04/18 05:41:52;;;;;;;4.57;3.78;;;;;;;9.86;52.13;101956.94;4988265;28;20022;-65
2022/04/18 05:44:17;;;;;;;4.43;3.35;;;;;;;9.95;51.88;101958.59;4988862;28;20109;-63
2022/04/18 05:46:42;;;;;;;4.78;2.70;;;;;;;10.11;51.20;101959.25;4987688;28;20022;-64
2022/04/18 05:49:08;;;;;;;6.25;3.25;;;;;;;10.21;50.61;101962.63;4988256;28;20073;-64
2022/04/18 05:51:33;;;;;;;3.85;2.67;;;;;;;10.27;50.13;101961.66;4988036;28;20027;-64
2022/04/18 05:54:00;;;;;;;3.03;2.75;;;;;;;10.33;50.41;101967.69;4988303;28;20019;-63
2022/04/18 05:56:25;;;;;;;4.03;2.78;;;;;;;10.38;48.70;101962.38;4988613;28;20026;-63
2022/04/18 05:58:51;;;;;;;6.32;3.13;;;;;;;10.43;48.81;101957.03;4989803;28;20129;-64
2022/04/18 06:01:16;;;;;;;4.93;3.10;;;;;;;10.60;48.12;101970.84;4989085;28;20112;-62
2022/04/18 06:03:41;;;;;;;3.03;2.50;;;;;;;10.74;48.39;101961.84;4989252;28;20026;-63
2022/04/18 06:06:07;;;;;;;3.10;2.72;;;;;;;10.85;48.24;101966.94;4988985;28;20018;-65
2022/04/18 06:08:32;;;;;;;3.20;2.88;;;;;;;10.89;47.76;101967.78;4988920;28;20641;-63
2022/04/18 06:10:58;;;;;;;5.28;3.05;;;;;;;10.98;47.73;101967.59;4987530;28;20496;-63
2022/04/18 06:13:24;;;;;;;8.95;3.08;;;;;;;11.09;47.88;101970.94;4988778;28;20030;-62
2022/04/18 06:15:52;;;;;;;3.38;3.05;;;;;;;11.12;47.37;101965.59;4989538;28;20030;-62
2022/04/18 06:18:18;;;;;;;3.53;3.03;;;;;;;11.09;47.11;101970.94;4989402;28;20484;-63
2022/04/18 06:20:43;;;;;;;4.20;3.20;;;;;;;11.06;47.66;101973.63;4988734;28;20026;-63
2022/04/18 06:23:08;;;;;;;4.63;2.88;;;;;;;11.16;47.97;101978.72;4988543;28;20380;-64
2022/04/18 06:25:33;;;;;;;5.10;2.75;;;;;;;11.31;47.48;101969.66;4987032;28;20022;-62
2022/04/18 06:27:59;;;;;;;3.53;3.22;;;;;;;11.30;47.08;101970.56;4988434;28;20022;-63
2022/04/18 06:30:24;;;;;;;4.00;2.70;;;;;;;11.51;46.78;101971.91;4988741;28;20130;-62
2022/04/18 06:32:49;;;;;;;5.22;3.15;;;;;;;11.53;47.27;101971.88;4988717;28;20026;-63
2022/04/18 06:35:15;;;;;;;3.28;2.97;;;;;;;11.66;46.19;101968.09;4988503;28;20046;-62
2022/04/18 06:37:40;;;;;;;4.07;2.85;;;;;;;11.65;46.44;101968.97;4988388;28;20018;-62
2022/04/18 06:40:06;;;;;;;6.25;2.90;;;;;;;11.71;45.01;101970.66;4988390;28;20042;-63
2022/04/18 06:42:35;;;;;;;4.35;2.78;;;;;;;11.86;45.03;101975.59;4987606;28;20034;-61
2022/04/18 06:45:00;;;;;;;3.88;2.55;;;;;;;11.92;45.96;101974.59;4988497;28;20366;-63
2022/04/18 06:47:26;;;;;;;3.42;2.75;;;;;;;12.04;45.94;101975.25;4988325;28;20031;-63
2022/04/18 06:49:51;;;;;;;3.75;3.00;;;;;;;11.99;45.80;101976.22;4988334;28;20069;-63
2022/04/18 06:52:16;;;;;;;5.30;3.40;;;;;;;12.03;45.92;101977.00;4988881;28;20042;-62
2022/04/18 06:54:42;;;;;;;5.57;3.08;;;;;;;11.88;45.79;101989.66;4988104;28;20034;-62
2022/04/18 06:57:07;;;;;;;5.07;3.13;;;;;;;11.92;46.17;101985.16;4987809;28;20031;-63
2022/04/18 06:59:32;;;;;;;3.10;2.80;;;;;;;11.86;46.00;101991.44;4987520;28;20467;-60
2022/04/18 07:01:59;;;;;;;4.13;3.28;;;;;;;11.99;45.96;101991.19;4987650;28;20035;-61
2022/04/18 07:04:24;;;;;;;4.55;3.08;;;;;;;12.20;46.07;101994.31;4987168;28;20026;-61
2022/04/18 07:06:50;;;;;;;6.05;3.58;;;;;;;12.22;45.91;101997.78;4988697;28;20022;-60
2022/04/18 07:09:16;;;;;;;4.68;3.05;;;;;;;12.18;46.16;101996.09;4987330;28;20038;-62
2022/04/18 07:11:42;;;;;;;6.30;2.95;;;;;;;12.23;45.32;101995.13;4986288;28;20039;-61
2022/04/18 07:14:08;;;;;;;4.32;3.35;;;;;;;12.23;44.94;101992.47;4988002;28;20429;-60
2022/04/18 07:16:33;;;;;;;7.75;3.58;;;;;;;12.56;44.50;101991.72;4987140;28;20388;-61
2022/04/18 07:18:59;;;;;;;5.05;2.80;;;;;;;12.56;43.62;101989.09;4986169;28;20030;-60
2022/04/18 07:21:25;;;;;;;8.15;4.00;;;;;;;12.64;44.03;101989.75;4987249;28;20034;-67
2022/04/18 07:23:51;;;;;;;3.65;2.80;;;;;;;12.82;43.55;101984.06;4972037;28;20050;-60
2022/04/18 07:26:16;;;;;;;5.47;2.90;;;;;;;12.86;44.03;101988.38;4983284;28;20018;-63
2022/04/18 07:28:41;;;;;;;3.97;3.13;;;;;;;12.92;44.21;101988.22;4977333;28;20436;-63
2022/04/18 07:31:07;;;;;;;5.43;3.60;;;;;;;13.05;44.11;101983.47;4968527;28;20466;-61
2022/04/18 07:33:33;;;;;;;4.97;3.15;;;;;;;13.09;43.98;101982.47;4967855;28;20034;-63
2022/04/18 07:35:59;;;;;;;6.18;2.90;;;;;;;13.30;44.63;101988.09;4975666;28;20058;-62
2022/04/18 07:41:08;;;;;;;5.00;2.72;;;;;;;13.63;44.28;101988.13;4989486;28;20045;-62
2022/04/18 07:43:34;;;;;;;3.35;3.05;;;;;;;13.85;44.76;101990.13;4990841;28;20034;-62
2022/04/18 07:46:03;;;;;;;5.05;3.08;;;;;;;14.00;44.11;101978.22;4990638;28;20056;-62
2022/04/18 07:48:29;;;;;;;4.40;2.95;;;;;;;14.07;44.24;101991.28;4990944;28;20030;-62
2022/04/18 07:53:38;;;;;;;6.25;2.83;;;;;;;14.34;42.27;101986.91;5016727;28;20114;-62
2022/04/18 07:56:04;;;;;;;4.78;2.63;;;;;;;14.60;42.08;101990.50;4989112;28;20030;-63
2022/04/18 07:58:29;;;;;;;3.35;3.00;;;;;;;14.63;41.89;101990.41;4990454;28;20188;-62
2022/04/18 08:00:54;;;;;;;4.32;2.80;;;;;;;14.57;41.71;101981.78;5020583;28;20069;-63
2022/04/18 08:03:20;;;;;;;7.38;2.78;;;;;;;14.57;40.80;101984.44;4992041;28;20453;-62
2022/04/18 08:05:45;;;;;;;3.20;2.60;;;;;;;14.84;39.98;101980.03;4990915;28;20069;-62
2022/04/18 08:08:10;;;;;;;4.40;2.72;;;;;;;15.01;39.90;101981.25;4991583;28;20046;-62
2022/04/18 08:10:36;;;;;;;6.10;2.83;;;;;;;15.12;39.71;101979.09;4987285;28;20026;-61
2022/04/18 08:13:03;;;;;;;3.38;2.55;;;;;;;15.24;38.90;101979.56;4991306;28;20504;-62
2022/04/18 08:15:28;;;;;;;2.80;2.60;;;;;;;15.35;39.46;101988.00;4987083;28;20034;-62
2022/04/18 08:17:54;;;;;;;3.03;2.47;;;;;;;15.45;40.28;101985.91;4991539;28;20038;-62
2022/04/18 08:20:19;;;;;;;3.15;2.63;;;;;;;15.15;40.05;101984.28;4990561;28;20485;-62
2022/04/18 08:22:45;;;;;;;4.97;2.60;;;;;;;15.44;40.11;101984.16;4990959;28;20088;-63
2022/04/18 08:25:10;;;;;;;5.22;2.70;;;;;;;15.56;39.81;101984.66;4989209;28;20699;-63
2022/04/18 08:27:36;;;;;;;8.18;3.00;;;;;;;15.25;40.30;101983.97;4989192;28;20054;-62
2022/04/18 08:30:01;;;;;;;4.90;2.70;;;;;;;15.60;40.24;101989.81;4988116;28;20105;-63
2022/04/18 08:32:26;;;;;;;6.43;2.80;;;;;;;15.61;39.14;101986.22;4990718;28;20054;-62
2022/04/18 08:34:54;;;;;;;3.95;2.70;;;;;;;15.51;38.76;101990.97;4989256;28;20358;-62
2022/04/18 08:37:19;;;;;;;4.57;2.80;;;;;;;15.63;40.34;101976.38;4991315;28;20026;-63
2022/04/18 08:39:45;;;;;;;3.90;3.03;;;;;;;15.78;40.23;101988.22;4990684;28;20031;-63
2022/04/18 08:42:11;;;;;;;5.65;2.45;;;;;;;15.91;39.08;101978.00;4989242;28;20034;-62
2022/04/18 08:44:37;;;;;;;3.53;2.47;;;;;;;15.96;38.76;101982.28;5005566;28;20472;-62
2022/04/18 08:47:03;;;;;;;2.60;2.40;;;;;;;16.06;39.82;101975.72;4988514;28;20030;-63
2022/04/18 08:54:58;;;;;;;5.90;2.42;;;;;;;16.58;35.58;101971.03;4988516;28;20041;-63
2022/04/18 08:57:23;;;;;;;2.80;1.90;;;;;;;16.91;34.08;101976.72;4988546;28;20050;-62
2022/04/18 08:59:48;;;;;;;2.92;2.40;;;;;;;17.16;33.97;101975.69;4987881;28;20120;-62
2022/04/18 09:02:14;;;;;;;4.20;2.20;;;;;;;17.39;32.90;101973.81;4987083;28;20033;-62
2022/04/18 09:04:39;;;;;;;2.60;2.00;;;;;;;17.54;31.76;101982.91;4990087;28;20030;-62
2022/04/18 09:07:12;;;;;;;2.80;2.10;;;;;;;17.57;30.74;101975.72;4990397;28;20045;-63
2022/04/18 09:09:38;;;;;;;3.08;1.85;;;;;;;17.60;29.29;101976.41;4989676;28;20393;-63
2022/04/18 09:12:16;;;;;;;2.65;1.90;;;;;;;17.76;27.95;101971.25;4989502;28;20046;-62
2022/04/18 09:14:42;;;;;;;3.42;1.88;;;;;;;17.68;28.31;101968.97;4990098;28;20062;-63
2022/04/18 09:17:09;;;;;;;2.03;1.83;;;;;;;17.77;29.29;101972.13;4988541;28;20606;-63
2022/04/18 09:19:35;;;;;;;2.55;1.88;;;;;;;18.01;27.91;101969.22;4988770;28;20058;-62
2022/04/18 09:22:02;;;;;;;2.05;1.90;;;;;;;18.05;27.61;101976.13;4988350;28;20050;-61
2022/04/18 09:24:32;;;;;;;3.08;2.10;;;;;;;17.93;27.60;101969.59;4986752;28;20010;-63
2022/04/18 09:27:29;;;;;;;4.60;2.20;;;;;;;18.04;27.86;101971.75;4978607;28;20022;-61
2022/04/18 09:30:08;;;;;;;2.80;2.15;;;;;;;17.71;28.53;101959.06;4974955;28;20228;-62
2022/04/18 09:32:34;;;;;;;2.53;2.15;;;;;;;17.74;29.48;101966.94;4982572;28;20422;-62
2022/04/18 09:35:01;;;;;;;4.70;2.00;;;;;;;17.94;29.61;101966.84;4968107;28;20109;-60
2022/04/18 09:37:29;;;;;;;2.20;1.95;;;;;;;18.28;29.53;101961.75;4978346;28;20374;-60
2022/04/18 09:39:55;;;;;;;2.47;2.28;;;;;;;18.41;30.05;101963.78;4981122;28;20019;-60
2022/04/18 09:42:22;;;;;;;2.92;2.20;;;;;;;18.51;30.84;101959.72;4980167;28;20329;-60
2022/04/18 09:44:48;;;;;;;5.43;2.13;;;;;;;18.58;30.12;101962.09;4980991;28;20615;-59
2022/04/18 09:47:15;;;;;;;3.58;2.30;;;;;;;18.73;29.46;101960.47;4976030;28;20030;-58
2022/04/18 09:49:41;;;;;;;2.20;2.00;;;;;;;18.85;28.94;101954.50;4979837;28;20018;-61
2022/04/18 09:52:17;;;;;;;2.42;2.22;;;;;;;19.00;28.87;101959.97;4981432;28;20057;-61
2022/04/18 09:54:56;;;;;;;2.40;2.03;;;;;;;18.92;29.21;101961.25;4979074;28;20033;-59
2022/04/18 09:57:22;;;;;;;;;;;;;;;18.99;28.74;101955.59;4980749;28;20489;-60
2022/04/18 09:59:49;;;;;;;5.32;2.70;;;;;;;18.78;29.98;101950.41;4980682;28;19976;-60
2022/04/18 10:02:15;;;;;;;3.03;2.05;;;;;;;18.85;29.35;101949.16;4978845;28;20014;-60
2022/04/18 10:04:40;;;;;;;2.53;2.33;;;;;;;18.86;28.17;101948.22;4979106;28;20079;-60
2022/04/18 10:07:06;;;;;;;4.18;2.30;;;;;;;18.72;29.46;101948.06;4983935;28;20366;-59
2022/04/18 10:09:32;;;;;;;2.97;2.10;;;;;;;18.62;30.57;101944.97;4980062;28;20026;-59
2022/04/18 10:11:57;;;;;;;2.83;2.30;;;;;;;18.59;30.85;101940.66;4980334;28;20125;-59
2022/04/18 10:14:23;;;;;;;2.42;1.95;;;;;;;18.63;29.36;101939.56;4978410;28;20113;-59
2022/04/18 10:16:48;;;;;;;7.07;2.30;;;;;;;18.60;28.55;101938.88;4980700;28;20135;-58
2022/04/18 10:19:59;;;;;;;2.20;2.00;;;;;;;18.54;30.00;101946.22;4977165;28;20105;-58
2022/04/18 10:22:37;;;;;;;3.50;2.75;;;;;;;18.54;30.07;101940.03;4980089;28;20034;-59
2022/04/18 10:25:22;;;;;;;4.15;2.00;;;;;;;18.65;31.17;101937.69;4980386;28;20084;-59
2022/04/18 10:28:08;;;;;;;3.22;2.10;;;;;;;18.62;30.01;101939.63;4980066;28;20069;-58
2022/04/18 10:30:52;;;;;;;5.50;2.08;;;;;;;18.89;29.88;101940.03;4972954;28;20027;-59
2022/04/18 10:33:18;;;;;;;4.85;2.35;;;;;;;18.96;28.56;101937.06;4968856;28;20034;-59
2022/04/18 10:35:53;;;;;;;4.70;2.47;;;;;;;19.08;28.07;101938.25;4971159;28;20015;-57
2022/04/18 10:38:24;;;;;;;2.92;1.98;;;;;;;19.07;30.56;101940.00;4987955;28;20052;-57
2022/04/18 10:40:50;;;;;;;3.58;2.20;;;;;;;19.12;29.37;101935.34;4987314;28;20034;-59
2022/04/18 10:43:15;;;;;;;5.05;2.15;;;;;;;19.35;29.18;101935.06;4988428;28;20022;-57
2022/04/18 10:45:41;;;;;;;2.33;1.90;;;;;;;19.46;30.54;101935.31;4977097;28;20477;-60
2022/04/18 10:48:13;;;;;;;3.53;2.45;;;;;;;19.36;29.10;101942.13;5005150;28;20112;-60
2022/04/18 10:50:43;;;;;;;3.55;2.38;;;;;;;19.68;27.77;101931.47;4984424;28;20086;-58
2022/04/18 10:53:16;;;;;;;3.40;2.10;;;;;;;19.85;26.80;101930.53;4986864;28;20372;-59
2022/04/18 10:56:05;;;;;;;4.82;2.70;;;;;;;19.66;27.07;101928.03;4986990;28;20034;-60
2022/04/18 10:58:34;;;;;;;4.63;2.38;;;;;;;19.98;28.95;101932.53;4985072;28;20477;-60
2022/04/18 11:01:03;;;;;;;3.30;2.35;;;;;;;19.95;27.86;101923.72;4987335;28;20034;-60
2022/04/18 11:03:46;;;;;;;2.78;2.47;;;;;;;19.91;28.59;101927.53;4987351;28;20033;-61
2022/04/18 11:06:18;;;;;;;9.98;2.50;;;;;;;20.24;27.34;101923.03;4987512;28;20532;-63
2022/04/18 11:09:06;;;;;;;2.33;2.13;;;;;;;20.20;31.14;101933.03;4985987;28;20485;-63
2022/04/18 11:11:54;;;;;;;3.50;2.20;;;;;;;20.19;26.68;101927.78;4987261;28;20081;-61
2022/04/18 11:14:23;;;;;;;5.72;2.15;;;;;;;20.52;28.66;101921.41;4988105;28;20696;-62
2022/04/18 11:16:49;;;;;;;;;;;;;;;20.20;26.07;101932.19;4988993;28;20077;-62
2022/04/18 11:19:15;;;;;;;3.97;2.53;;;;;;;20.48;28.69;101927.03;4986863;28;20368;-64
2022/04/18 11:21:56;;;;;;;3.67;1.80;;;;;;;20.77;25.95;101921.75;4987785;28;20070;-62
2022/04/18 11:24:49;;;;;;;2.80;2.25;;;;;;;20.54;26.93;101916.84;4987004;28;20683;-63
2022/04/18 11:27:16;;;;;;;4.03;2.03;;;;;;;20.76;28.23;101920.00;4988090;28;20042;-62
2022/04/18 11:29:47;;;;;;;5.85;2.08;;;;;;;21.19;25.68;101917.41;4987854;28;20026;-61
2022/04/18 11:32:18;;;;;;;2.78;2.00;;;;;;;21.42;25.82;101920.47;4985396;28;20076;-63
2022/04/18 11:34:45;;;;;;;5.40;2.00;;;;;;;21.26;26.54;101914.34;4987701;28;20058;-58
2022/04/18 11:37:13;;;;;;;1.83;1.73;;;;;;;21.14;27.12;101908.81;4987115;28;20673;-59
2022/04/18 11:39:46;;;;;;;2.20;1.98;;;;;;;21.26;25.45;101903.63;4987224;28;20038;-60
2022/04/18 11:42:22;;;;;;;2.95;2.25;;;;;;;21.48;24.02;101913.00;4987940;28;20042;-60
2022/04/18 11:44:52;;;;;;;1.63;1.50;;;;;;;21.63;22.28;101903.97;4987367;28;20021;-60
2022/04/18 11:47:26;;;;;;;2.63;1.60;;;;;;;21.71;22.57;101903.50;4987964;28;20377;-60